Yu_ka — JD2254 — position and weather

sailwx.info

Track history (hours):
 
Tides and Currents Weather Stations Pressure Air Temp Water Temp Dewpoint Dewpoint Depression Visibility Wind Speed Wind Dir Waves Ship Positions

Yu_ka

Last reported at 2018-Jul-20 11:38 UTC. Time now 2018-Jul-22 16:34 UTC.
Position N 34°50' E 139°29'.

Length 76 m; draft 3.9 m.

Type: Cargo ship. MMSI: 431402044.

Date/timePositionNaut miles runAvg speedWind from/ knotsBaromVisibWave heightAir tempDewpointWater temp
2018-Jul-20 11:38N 34°50' E 139°29'310.1
2018-Jul-20 11:22N 34°50' E 139°33'410.9
2018-Jul-20 11:00N 34°51' E 139°37'9 0.2
2018-Jul-18 10:21N 34°53' E 139°48'513.7
2018-Jul-18 09:58N 34°57' E 139°44'612.1
2018-Jul-18 09:30N 35°02' E 139°43'612.8
2018-Jul-18 09:00N 35°08' E 139°45'612.2
2018-Jul-18 08:30N 35°14' E 139°47'611.2
2018-Jul-18 08:00N 35°19' E 139°43'611.7
2018-Jul-18 07:30N 35°25' E 139°43'2 3.6
2018-Jul-18 07:00N 35°26' E 139°41'0 0.0
2018-Jul-18 06:30N 35°26' E 139°41'0 0.0
2018-Jul-18 06:00N 35°26' E 139°41'0 0.3
2018-Jul-18 05:30N 35°26' E 139°41'1 2.0
2018-Jul-18 05:00N 35°27' E 139°42'0 0.0
2018-Jul-18 04:30N 35°27' E 139°42'0 0.0
2018-Jul-18 04:00N 35°27' E 139°42'0 0.5
2018-Jul-18 03:30N 35°27' E 139°43'611.4
2018-Jul-18 03:00N 35°29' E 139°49'5 9.9
2018-Jul-18 02:30N 35°34' E 139°51'0 0.7
2018-Jul-18 01:57N 35°34' E 139°50'2 4.3
2018-Jul-18 01:24N 35°35' E 139°47'2 0.9
2018-Jul-17 22:59N 35°37' E 139°46'3 6.3
2018-Jul-17 22:30N 35°35' E 139°48'2 2.2
2018-Jul-17 21:38N 35°34' E 139°50'0 0.0
2018-Jul-17 21:29N 35°34' E 139°50'0 0.0
2018-Jul-17 20:53N 35°34' E 139°50'0 0.0
2018-Jul-17 20:29N 35°34' E 139°50'0 0.0
2018-Jul-17 19:59N 35°34' E 139°50'0 0.0
2018-Jul-17 19:17N 35°34' E 139°50'0 0.0
2018-Jul-17 15:48N 35°34' E 139°50'1 3.3
2018-Jul-17 15:30N 35°33' E 139°51'4 8.7
2018-Jul-17 15:00N 35°29' E 139°52'611.0
2018-Jul-17 14:30N 35°25' E 139°47'510.9
2018-Jul-17 14:00N 35°20' E 139°44'510.0
2018-Jul-17 13:30N 35°15' E 139°47'611.3
2018-Jul-17 13:00N 35°10' E 139°46'611.9
2018-Jul-17 12:30N 35°04' E 139°43'612.0
2018-Jul-17 12:00N 35°00' E 139°38'1013.8
2018-Jul-17 11:15N 34°55' E 139°27'5 0.2
2018-Jul-16 06:00N 34°58' E 139°22'4 7.7
2018-Jul-16 05:30N 34°59' E 139°26'4 8.3
2018-Jul-16 05:00N 35°01' E 139°31'5 9.0
2018-Jul-16 04:30N 35°03' E 139°36'611.0
2018-Jul-16 03:59N 35°06' E 139°42'611.4
2018-Jul-16 03:29N 35°10' E 139°45'612.0
2018-Jul-16 03:00N 35°16' E 139°46'611.9
2018-Jul-16 02:30N 35°21' E 139°42'510.7
2018-Jul-16 02:00N 35°27' E 139°42'1 1.0
2018-Jul-16 01:30N 35°26' E 139°41'1 1.3
2018-Jul-16 01:00N 35°27' E 139°42'3 6.6
2018-Jul-16 00:30N 35°23' E 139°41'1 1.3
2018-Jul-16 00:00N 35°24' E 139°41'0 0.0
2018-Jul-15 23:30N 35°24' E 139°41'1 2.9
2018-Jul-15 23:00N 35°23' E 139°39'0 0.3
2018-Jul-15 22:30N 35°23' E 139°40'0 0.0
2018-Jul-15 22:00N 35°23' E 139°40'4 8.4
2018-Jul-15 21:30N 35°20' E 139°43'611.4
2018-Jul-15 21:00N 35°15' E 139°47'611.3
2018-Jul-15 20:30N 35°10' E 139°45'611.5
2018-Jul-15 20:00N 35°05' E 139°42'611.8
2018-Jul-15 19:30N 35°01' E 139°36'612.7
2018-Jul-15 19:00N 34°57' E 139°30'  
2018-Jul-12 16:21N 34°58' E 139°20'3 9.2
2018-Jul-12 15:59N 34°59' E 139°24'5 9.6
2018-Jul-12 15:30N 35°01' E 139°29'611.0
2018-Jul-12 14:59N 35°03' E 139°35'612.6
2018-Jul-12 14:30N 35°06' E 139°42'612.3
2018-Jul-12 14:00N 35°11' E 139°46'611.7
2018-Jul-12 13:30N 35°17' E 139°45'611.6
2018-Jul-12 13:00N 35°23' E 139°42'611.6
2018-Jul-12 12:30N 35°27' E 139°47'710.6
2018-Jul-12 11:53N 35°33' E 139°51'511.7
2018-Jul-12 11:28N 35°36' E 139°46'1 0.5
2018-Jul-12 09:51N 35°37' E 139°46'0 0.0
2018-Jul-12 09:30N 35°37' E 139°46'2 2.9
2018-Jul-12 08:59N 35°36' E 139°47'510.9
2018-Jul-12 08:30N 35°32' E 139°52'5 9.8
2018-Jul-12 08:00N 35°30' E 139°47'1 1.9
2018-Jul-12 07:28N 35°29' E 139°45'0 0.0
2018-Jul-12 06:58N 35°29' E 139°45'0 0.0
2018-Jul-12 06:28N 35°29' E 139°45'0 0.0
2018-Jul-12 05:58N 35°29' E 139°45'0 0.0
2018-Jul-12 05:28N 35°29' E 139°45'0 0.0
2018-Jul-12 04:55N 35°29' E 139°45'0 0.0
2018-Jul-12 04:25N 35°29' E 139°45'0 0.0
2018-Jul-12 03:58N 35°29' E 139°45'0 0.0
2018-Jul-12 03:28N 35°29' E 139°45'0 0.0
2018-Jul-12 02:58N 35°29' E 139°45'0 0.0
2018-Jul-12 02:28N 35°29' E 139°45'0 0.0
2018-Jul-12 02:00N 35°29' E 139°45'1 2.7
2018-Jul-12 01:30N 35°28' E 139°45'510.5
2018-Jul-12 01:00N 35°23' E 139°46'510.7
2018-Jul-12 00:30N 35°17' E 139°45'510.2
2018-Jul-12 00:00N 35°13' E 139°47'610.9
2018-Jul-11 23:30N 35°07' E 139°44'611.2
2018-Jul-11 23:00N 35°03' E 139°40'712.3
2018-Jul-11 22:28N 34°59' E 139°33'613.4
2018-Jul-11 22:00N 34°55' E 139°27'11 0.3
2018-Jul-10 13:30N 34°56' E 139°14'6 8.8
2018-Jul-10 12:52N 34°58' E 139°20'3 7.7
2018-Jul-10 12:27N 34°59' E 139°24'4 8.0
2018-Jul-10 12:00N 35°01' E 139°28'  
Track history (hours):
 
Tides and Currents Weather Stations Pressure Air Temp Water Temp Dewpoint Dewpoint Depression Visibility Wind Speed Wind Dir Waves Ship Positions

Yu_ka

Last reported at 2018-Jul-20 11:38 UTC. Time now 2018-Jul-22 16:34 UTC.
Position N 34°50' E 139°29'.

Length 76 m; draft 3.9 m.

Type: Cargo ship. MMSI: 431402044.

Date/timePositionNaut miles runAvg speedWind from/ knotsBaromVisibWave heightAir tempDewpointWater temp
2018-Jul-20 11:38N 34°50' E 139°29'310.1
2018-Jul-20 11:22N 34°50' E 139°33'410.9
2018-Jul-20 11:00N 34°51' E 139°37'9 0.2
2018-Jul-18 10:21N 34°53' E 139°48'513.7
2018-Jul-18 09:58N 34°57' E 139°44'612.1
2018-Jul-18 09:30N 35°02' E 139°43'612.8
2018-Jul-18 09:00N 35°08' E 139°45'612.2
2018-Jul-18 08:30N 35°14' E 139°47'611.2
2018-Jul-18 08:00N 35°19' E 139°43'611.7
2018-Jul-18 07:30N 35°25' E 139°43'2 3.6
2018-Jul-18 07:00N 35°26' E 139°41'0 0.0
2018-Jul-18 06:30N 35°26' E 139°41'0 0.0
2018-Jul-18 06:00N 35°26' E 139°41'0 0.3
2018-Jul-18 05:30N 35°26' E 139°41'1 2.0
2018-Jul-18 05:00N 35°27' E 139°42'0 0.0
2018-Jul-18 04:30N 35°27' E 139°42'0 0.0
2018-Jul-18 04:00N 35°27' E 139°42'0 0.5
2018-Jul-18 03:30N 35°27' E 139°43'611.4
2018-Jul-18 03:00N 35°29' E 139°49'5 9.9
2018-Jul-18 02:30N 35°34' E 139°51'0 0.7
2018-Jul-18 01:57N 35°34' E 139°50'2 4.3
2018-Jul-18 01:24N 35°35' E 139°47'2 0.9
2018-Jul-17 22:59N 35°37' E 139°46'3 6.3
2018-Jul-17 22:30N 35°35' E 139°48'2 2.2
2018-Jul-17 21:38N 35°34' E 139°50'0 0.0
2018-Jul-17 21:29N 35°34' E 139°50'0 0.0
2018-Jul-17 20:53N 35°34' E 139°50'0 0.0
2018-Jul-17 20:29N 35°34' E 139°50'0 0.0
2018-Jul-17 19:59N 35°34' E 139°50'0 0.0
2018-Jul-17 19:17N 35°34' E 139°50'0 0.0
2018-Jul-17 15:48N 35°34' E 139°50'1 3.3
2018-Jul-17 15:30N 35°33' E 139°51'4 8.7
2018-Jul-17 15:00N 35°29' E 139°52'611.0
2018-Jul-17 14:30N 35°25' E 139°47'510.9
2018-Jul-17 14:00N 35°20' E 139°44'510.0
2018-Jul-17 13:30N 35°15' E 139°47'611.3
2018-Jul-17 13:00N 35°10' E 139°46'611.9
2018-Jul-17 12:30N 35°04' E 139°43'612.0
2018-Jul-17 12:00N 35°00' E 139°38'1013.8
2018-Jul-17 11:15N 34°55' E 139°27'5 0.2
2018-Jul-16 06:00N 34°58' E 139°22'4 7.7
2018-Jul-16 05:30N 34°59' E 139°26'4 8.3
2018-Jul-16 05:00N 35°01' E 139°31'5 9.0
2018-Jul-16 04:30N 35°03' E 139°36'611.0
2018-Jul-16 03:59N 35°06' E 139°42'611.4
2018-Jul-16 03:29N 35°10' E 139°45'612.0
2018-Jul-16 03:00N 35°16' E 139°46'611.9
2018-Jul-16 02:30N 35°21' E 139°42'510.7
2018-Jul-16 02:00N 35°27' E 139°42'1 1.0
2018-Jul-16 01:30N 35°26' E 139°41'1 1.3
2018-Jul-16 01:00N 35°27' E 139°42'3 6.6
2018-Jul-16 00:30N 35°23' E 139°41'1 1.3
2018-Jul-16 00:00N 35°24' E 139°41'0 0.0
2018-Jul-15 23:30N 35°24' E 139°41'1 2.9
2018-Jul-15 23:00N 35°23' E 139°39'0 0.3
2018-Jul-15 22:30N 35°23' E 139°40'0 0.0
2018-Jul-15 22:00N 35°23' E 139°40'4 8.4
2018-Jul-15 21:30N 35°20' E 139°43'611.4
2018-Jul-15 21:00N 35°15' E 139°47'611.3
2018-Jul-15 20:30N 35°10' E 139°45'611.5
2018-Jul-15 20:00N 35°05' E 139°42'611.8
2018-Jul-15 19:30N 35°01' E 139°36'612.7
2018-Jul-15 19:00N 34°57' E 139°30'  
2018-Jul-12 16:21N 34°58' E 139°20'3 9.2
2018-Jul-12 15:59N 34°59' E 139°24'5 9.6
2018-Jul-12 15:30N 35°01' E 139°29'611.0
2018-Jul-12 14:59N 35°03' E 139°35'612.6
2018-Jul-12 14:30N 35°06' E 139°42'612.3
2018-Jul-12 14:00N 35°11' E 139°46'611.7
2018-Jul-12 13:30N 35°17' E 139°45'611.6
2018-Jul-12 13:00N 35°23' E 139°42'611.6
2018-Jul-12 12:30N 35°27' E 139°47'710.6
2018-Jul-12 11:53N 35°33' E 139°51'511.7
2018-Jul-12 11:28N 35°36' E 139°46'1 0.5
2018-Jul-12 09:51N 35°37' E 139°46'0 0.0
2018-Jul-12 09:30N 35°37' E 139°46'2 2.9
2018-Jul-12 08:59N 35°36' E 139°47'510.9
2018-Jul-12 08:30N 35°32' E 139°52'5 9.8
2018-Jul-12 08:00N 35°30' E 139°47'1 1.9
2018-Jul-12 07:28N 35°29' E 139°45'0 0.0
2018-Jul-12 06:58N 35°29' E 139°45'0 0.0
2018-Jul-12 06:28N 35°29' E 139°45'0 0.0
2018-Jul-12 05:58N 35°29' E 139°45'0 0.0
2018-Jul-12 05:28N 35°29' E 139°45'0 0.0
2018-Jul-12 04:55N 35°29' E 139°45'0 0.0
2018-Jul-12 04:25N 35°29' E 139°45'0 0.0
2018-Jul-12 03:58N 35°29' E 139°45'0 0.0
2018-Jul-12 03:28N 35°29' E 139°45'0 0.0
2018-Jul-12 02:58N 35°29' E 139°45'0 0.0
2018-Jul-12 02:28N 35°29' E 139°45'0 0.0
2018-Jul-12 02:00N 35°29' E 139°45'1 2.7
2018-Jul-12 01:30N 35°28' E 139°45'510.5
2018-Jul-12 01:00N 35°23' E 139°46'510.7
2018-Jul-12 00:30N 35°17' E 139°45'510.2
2018-Jul-12 00:00N 35°13' E 139°47'610.9
2018-Jul-11 23:30N 35°07' E 139°44'611.2
2018-Jul-11 23:00N 35°03' E 139°40'712.3
2018-Jul-11 22:28N 34°59' E 139°33'613.4
2018-Jul-11 22:00N 34°55' E 139°27'11 0.3
2018-Jul-10 13:30N 34°56' E 139°14'6 8.8
2018-Jul-10 12:52N 34°58' E 139°20'3 7.7
2018-Jul-10 12:27N 34°59' E 139°24'4 8.0
2018-Jul-10 12:00N 35°01' E 139°28'  

Dump ship's entire track history